sensor_id;sensor_type;location;lat;lon;timestamp;pressure;altitude;pressure_sealevel;temperature;humidity
76024;BME280;64719;52.124;6.226;2023-04-03T00:01:49;103192.91;;;2.44;80.13
76024;BME280;64719;52.124;6.226;2023-04-03T00:04:15;103191.53;;;2.39;80.24
76024;BME280;64719;52.124;6.226;2023-04-03T00:06:42;103194.59;;;2.45;79.57
76024;BME280;64719;52.124;6.226;2023-04-03T00:09:10;103200.72;;;2.47;79.77
76024;BME280;64719;52.124;6.226;2023-04-03T00:11:36;103190.81;;;2.48;79.65
76024;BME280;64719;52.124;6.226;2023-04-03T00:14:03;103195.44;;;2.35;80.21
76024;BME280;64719;52.124;6.226;2023-04-03T00:16:29;103196.31;;;2.35;80.52
76024;BME280;64719;52.124;6.226;2023-04-03T00:18:56;103197.75;;;2.39;80.73
76024;BME280;64719;52.124;6.226;2023-04-03T00:21:22;103206.16;;;2.35;80.68
76024;BME280;64719;52.124;6.226;2023-04-03T00:23:49;103205.53;;;2.31;81.08
76024;BME280;64719;52.124;6.226;2023-04-03T00:26:17;103211.88;;;2.30;81.04
76024;BME280;64719;52.124;6.226;2023-04-03T00:28:43;103205.44;;;2.22;81.25
76024;BME280;64719;52.124;6.226;2023-04-03T00:31:10;103212.59;;;2.21;81.46
76024;BME280;64719;52.124;6.226;2023-04-03T00:33:37;103212.84;;;2.18;81.28
76024;BME280;64719;52.124;6.226;2023-04-03T00:36:07;103220.25;;;2.15;81.68
76024;BME280;64719;52.124;6.226;2023-04-03T00:38:34;103210.28;;;2.17;81.89
76024;BME280;64719;52.124;6.226;2023-04-03T00:41:01;103208.72;;;2.14;82.09
76024;BME280;64719;52.124;6.226;2023-04-03T00:43:29;103216.25;;;2.09;82.27
76024;BME280;64719;52.124;6.226;2023-04-03T00:45:57;103215.13;;;2.01;82.56
76024;BME280;64719;52.124;6.226;2023-04-03T00:48:28;103218.75;;;2.00;82.84
76024;BME280;64719;52.124;6.226;2023-04-03T00:50:55;103217.56;;;2.04;83.11
76024;BME280;64719;52.124;6.226;2023-04-03T00:53:25;103224.63;;;2.05;83.13
76024;BME280;64719;52.124;6.226;2023-04-03T00:55:54;103229.34;;;2.01;83.41
76024;BME280;64719;52.124;6.226;2023-04-03T00:58:25;103229.22;;;1.92;83.62
76024;BME280;64719;52.124;6.226;2023-04-03T01:00:58;103231.78;;;1.93;83.92
76024;BME280;64719;52.124;6.226;2023-04-03T01:03:25;103231.41;;;1.86;84.30
76024;BME280;64719;52.124;6.226;2023-04-03T01:05:51;103228.31;;;1.80;84.46
76024;BME280;64719;52.124;6.226;2023-04-03T01:08:18;103231.63;;;1.83;84.62
76024;BME280;64719;52.124;6.226;2023-04-03T01:10:44;103225.16;;;1.75;84.94
76024;BME280;64719;52.124;6.226;2023-04-03T01:13:19;103231.34;;;1.75;85.22
76024;BME280;64719;52.124;6.226;2023-04-03T01:15:46;103233.78;;;1.78;85.18
76024;BME280;64719;52.124;6.226;2023-04-03T01:18:14;103234.75;;;1.77;85.43
76024;BME280;64719;52.124;6.226;2023-04-03T01:20:59;103235.34;;;1.70;85.59
76024;BME280;64719;52.124;6.226;2023-04-03T01:23:43;103235.69;;;1.65;86.04
76024;BME280;64719;52.124;6.226;2023-04-03T01:26:13;103223.00;;;1.56;85.86
76024;BME280;64719;52.124;6.226;2023-04-03T01:28:40;103237.84;;;1.60;86.38
76024;BME280;64719;52.124;6.226;2023-04-03T01:31:13;103241.28;;;1.62;86.96
76024;BME280;64719;52.124;6.226;2023-04-03T01:33:43;103251.22;;;1.60;86.70
76024;BME280;64719;52.124;6.226;2023-04-03T01:36:14;103244.19;;;1.59;87.02
76024;BME280;64719;52.124;6.226;2023-04-03T01:38:41;103251.56;;;1.56;87.10
76024;BME280;64719;52.124;6.226;2023-04-03T01:41:07;103245.97;;;1.48;87.40
76024;BME280;64719;52.124;6.226;2023-04-03T01:43:34;103248.41;;;1.51;87.86
76024;BME280;64719;52.124;6.226;2023-04-03T01:46:00;103245.97;;;1.48;88.09
76024;BME280;64719;52.124;6.226;2023-04-03T01:48:27;103246.56;;;1.51;87.77
76024;BME280;64719;52.124;6.226;2023-04-03T01:50:54;103242.41;;;1.47;87.96
76024;BME280;64719;52.124;6.226;2023-04-03T01:53:21;103243.41;;;1.46;88.13
76024;BME280;64719;52.124;6.226;2023-04-03T01:55:48;103242.13;;;1.39;88.61
76024;BME280;64719;52.124;6.226;2023-04-03T01:58:14;103241.63;;;1.34;88.73
76024;BME280;64719;52.124;6.226;2023-04-03T02:00:41;103243.50;;;1.45;88.88
76024;BME280;64719;52.124;6.226;2023-04-03T02:03:07;103256.72;;;1.35;89.06
76024;BME280;64719;52.124;6.226;2023-04-03T02:05:34;103253.91;;;1.37;89.28
76024;BME280;64719;52.124;6.226;2023-04-03T02:08:02;103255.22;;;1.31;89.23
76024;BME280;64719;52.124;6.226;2023-04-03T02:10:29;103257.72;;;1.22;89.92
76024;BME280;64719;52.124;6.226;2023-04-03T02:12:55;103258.44;;;1.24;89.85
76024;BME280;64719;52.124;6.226;2023-04-03T02:15:22;103253.31;;;1.21;90.15
76024;BME280;64719;52.124;6.226;2023-04-03T02:17:48;103263.41;;;1.17;90.13
76024;BME280;64719;52.124;6.226;2023-04-03T02:20:15;103257.19;;;1.17;90.55
76024;BME280;64719;52.124;6.226;2023-04-03T02:22:41;103262.00;;;1.12;90.71
76024;BME280;64719;52.124;6.226;2023-04-03T02:25:10;103261.06;;;1.13;90.99
76024;BME280;64719;52.124;6.226;2023-04-03T02:27:36;103262.88;;;1.12;91.18
76024;BME280;64719;52.124;6.226;2023-04-03T02:30:04;103264.50;;;1.02;91.63
76024;BME280;64719;52.124;6.226;2023-04-03T02:32:31;103263.31;;;1.06;92.01
76024;BME280;64719;52.124;6.226;2023-04-03T02:34:58;103262.78;;;1.01;91.58
76024;BME280;64719;52.124;6.226;2023-04-03T02:37:24;103259.78;;;1.06;91.91
76024;BME280;64719;52.124;6.226;2023-04-03T02:39:51;103262.78;;;1.01;92.36
76024;BME280;64719;52.124;6.226;2023-04-03T02:42:19;103261.41;;;0.96;92.37
76024;BME280;64719;52.124;6.226;2023-04-03T02:44:45;103258.84;;;0.94;92.36
76024;BME280;64719;52.124;6.226;2023-04-03T02:47:12;103266.13;;;0.92;92.63
76024;BME280;64719;52.124;6.226;2023-04-03T02:49:38;103264.00;;;0.85;92.74
76024;BME280;64719;52.124;6.226;2023-04-03T02:52:05;103273.97;;;0.83;92.70
76024;BME280;64719;52.124;6.226;2023-04-03T02:54:31;103264.00;;;0.85;93.12
76024;BME280;64719;52.124;6.226;2023-04-03T02:56:58;103267.66;;;0.84;93.12
76024;BME280;64719;52.124;6.226;2023-04-03T02:59:25;103260.81;;;0.80;93.59
76024;BME280;64719;52.124;6.226;2023-04-03T03:01:52;103261.44;;;0.83;93.20
76024;BME280;64719;52.124;6.226;2023-04-03T03:04:20;103271.72;;;0.77;93.69
76024;BME280;64719;52.124;6.226;2023-04-03T03:06:47;103270.44;;;0.82;93.47
76024;BME280;64719;52.124;6.226;2023-04-03T03:09:14;103272.88;;;0.85;93.57
76024;BME280;64719;52.124;6.226;2023-04-03T03:11:40;103275.66;;;0.84;93.71
76024;BME280;64719;52.124;6.226;2023-04-03T03:14:07;103280.78;;;0.87;93.83
76024;BME280;64719;52.124;6.226;2023-04-03T03:16:35;103286.78;;;0.90;93.64
76024;BME280;64719;52.124;6.226;2023-04-03T03:19:02;103290.00;;;0.83;93.52
76024;BME280;64719;52.124;6.226;2023-04-03T03:21:28;103280.56;;;0.77;93.91
76024;BME280;64719;52.124;6.226;2023-04-03T03:23:55;103286.03;;;0.76;93.70
76024;BME280;64719;52.124;6.226;2023-04-03T03:26:21;103287.75;;;0.77;94.22
76024;BME280;64719;52.124;6.226;2023-04-03T03:28:49;103286.34;;;0.71;93.80
76024;BME280;64719;52.124;6.226;2023-04-03T03:31:15;103291.03;;;0.80;94.47
76024;BME280;64719;52.124;6.226;2023-04-03T03:33:43;103291.59;;;0.73;94.10
76024;BME280;64719;52.124;6.226;2023-04-03T03:36:09;103290.31;;;0.66;94.05
76024;BME280;64719;52.124;6.226;2023-04-03T03:38:36;103287.53;;;0.67;94.00
76024;BME280;64719;52.124;6.226;2023-04-03T03:41:03;103292.66;;;0.70;94.81
76024;BME280;64719;52.124;6.226;2023-04-03T03:43:30;103297.38;;;0.67;94.35
76024;BME280;64719;52.124;6.226;2023-04-03T03:45:56;103297.59;;;0.64;94.72
76024;BME280;64719;52.124;6.226;2023-04-03T03:48:23;103295.00;;;0.62;94.55
76024;BME280;64719;52.124;6.226;2023-04-03T03:50:51;103296.41;;;0.55;94.21
76024;BME280;64719;52.124;6.226;2023-04-03T03:53:18;103299.41;;;0.51;94.55
76024;BME280;64719;52.124;6.226;2023-04-03T03:55:44;103296.53;;;0.54;94.55
76024;BME280;64719;52.124;6.226;2023-04-03T03:58:10;103304.31;;;0.57;94.85
76024;BME280;64719;52.124;6.226;2023-04-03T04:00:37;103304.66;;;0.52;94.74
76024;BME280;64719;52.124;6.226;2023-04-03T04:03:03;103307.09;;;0.43;94.34
76024;BME280;64719;52.124;6.226;2023-04-03T04:05:30;103303.06;;;0.50;94.77
76024;BME280;64719;52.124;6.226;2023-04-03T04:07:58;103305.94;;;0.47;94.64
76024;BME280;64719;52.124;6.226;2023-04-03T04:10:25;103302.94;;;0.39;94.29
76024;BME280;64719;52.124;6.226;2023-04-03T04:12:51;103304.72;;;0.38;94.58
76024;BME280;64719;52.124;6.226;2023-04-03T04:15:18;103301.53;;;0.33;94.81
76024;BME280;64719;52.124;6.226;2023-04-03T04:17:46;103301.41;;;0.22;95.17
76024;BME280;64719;52.124;6.226;2023-04-03T04:20:13;103310.91;;;0.14;94.84
76024;BME280;64719;52.124;6.226;2023-04-03T04:22:40;103310.72;;;0.17;95.44
76024;BME280;64719;52.124;6.226;2023-04-03T04:25:08;103311.44;;;0.06;95.60
76024;BME280;64719;52.124;6.226;2023-04-03T04:27:35;103309.25;;;-0.02;95.34
76024;BME280;64719;52.124;6.226;2023-04-03T04:30:02;103312.13;;;-0.05;95.62
76024;BME280;64719;52.124;6.226;2023-04-03T04:32:29;103313.31;;;-0.09;96.14
76024;BME280;64719;52.124;6.226;2023-04-03T04:34:56;103310.47;;;-0.20;95.95
76024;BME280;64719;52.124;6.226;2023-04-03T04:37:22;103321.09;;;-0.06;96.28
76024;BME280;64719;52.124;6.226;2023-04-03T04:39:49;103317.03;;;-0.11;96.65
76024;BME280;64719;52.124;6.226;2023-04-03T04:42:17;103320.84;;;-0.15;96.49
76024;BME280;64719;52.124;6.226;2023-04-03T04:44:43;103319.72;;;-0.11;96.46
76024;BME280;64719;52.124;6.226;2023-04-03T04:47:10;103317.41;;;-0.30;96.90
76024;BME280;64719;52.124;6.226;2023-04-03T04:49:37;103314.13;;;-0.21;96.87
76024;BME280;64719;52.124;6.226;2023-04-03T04:52:04;103319.34;;;-0.19;96.38
76024;BME280;64719;52.124;6.226;2023-04-03T04:54:30;103329.91;;;-0.18;96.52
76024;BME280;64719;52.124;6.226;2023-04-03T04:56:57;103337.03;;;-0.31;96.97
76024;BME280;64719;52.124;6.226;2023-04-03T04:59:25;103335.06;;;-0.15;97.06
76024;BME280;64719;52.124;6.226;2023-04-03T05:01:51;103336.03;;;-0.16;96.73
76024;BME280;64719;52.124;6.226;2023-04-03T05:04:18;103335.91;;;-0.14;96.62
76024;BME280;64719;52.124;6.226;2023-04-03T05:06:44;103334.09;;;-0.14;96.70
76024;BME280;64719;52.124;6.226;2023-04-03T05:09:11;103337.63;;;-0.13;96.66
76024;BME280;64719;52.124;6.226;2023-04-03T05:11:38;103330.78;;;-0.17;96.57
76024;BME280;64719;52.124;6.226;2023-04-03T05:14:04;103336.13;;;-0.17;96.52
76024;BME280;64719;52.124;6.226;2023-04-03T05:16:33;103336.56;;;-0.11;96.13
76024;BME280;64719;52.124;6.226;2023-04-03T05:18:59;103342.84;;;-0.12;96.48
76024;BME280;64719;52.124;6.226;2023-04-03T05:21:26;103349.88;;;-0.11;96.47
76024;BME280;64719;52.124;6.226;2023-04-03T05:23:57;103348.84;;;-0.08;95.72
76024;BME280;64719;52.124;6.226;2023-04-03T05:26:23;103348.53;;;-0.04;95.89
76024;BME280;64719;52.124;6.226;2023-04-03T05:28:50;103356.84;;;-0.08;95.75
76024;BME280;64719;52.124;6.226;2023-04-03T05:31:17;103356.16;;;0.03;96.02
76024;BME280;64719;52.124;6.226;2023-04-03T05:33:45;103362.44;;;0.02;95.48
76024;BME280;64719;52.124;6.226;2023-04-03T05:36:12;103370.47;;;0.02;95.57
76024;BME280;64719;52.124;6.226;2023-04-03T05:38:39;103367.03;;;-0.01;95.64
76024;BME280;64719;52.124;6.226;2023-04-03T05:41:05;103367.38;;;0.08;95.31
76024;BME280;64719;52.124;6.226;2023-04-03T05:43:32;103368.22;;;0.08;95.02
76024;BME280;64719;52.124;6.226;2023-04-03T05:45:59;103374.22;;;0.12;94.89
76024;BME280;64719;52.124;6.226;2023-04-03T05:48:26;103377.53;;;0.15;94.89
76024;BME280;64719;52.124;6.226;2023-04-03T05:50:54;103378.94;;;0.21;94.48
76024;BME280;64719;52.124;6.226;2023-04-03T05:53:22;103371.78;;;0.21;94.56
76024;BME280;64719;52.124;6.226;2023-04-03T05:55:50;103380.22;;;0.28;94.11
76024;BME280;64719;52.124;6.226;2023-04-03T05:58:17;103378.88;;;0.35;94.15
76024;BME280;64719;52.124;6.226;2023-04-03T06:00:43;103380.16;;;0.42;93.66
76024;BME280;64719;52.124;6.226;2023-04-03T06:03:10;103380.72;;;0.47;92.76
76024;BME280;64719;52.124;6.226;2023-04-03T06:05:37;103378.66;;;0.50;93.28
76024;BME280;64719;52.124;6.226;2023-04-03T06:08:05;103388.81;;;0.58;92.85
76024;BME280;64719;52.124;6.226;2023-04-03T06:10:31;103382.88;;;0.92;92.28
76024;BME280;64719;52.124;6.226;2023-04-03T06:12:58;103380.25;;;4.43;84.10
76024;BME280;64719;52.124;6.226;2023-04-03T06:15:25;103388.59;;;6.58;69.24
76024;BME280;64719;52.124;6.226;2023-04-03T06:17:51;103386.97;;;7.30;64.17
76024;BME280;64719;52.124;6.226;2023-04-03T06:20:18;103391.78;;;8.08;61.74
76024;BME280;64719;52.124;6.226;2023-04-03T06:22:44;103395.78;;;6.86;63.47
76024;BME280;64719;52.124;6.226;2023-04-03T06:25:12;103378.28;;;7.64;63.34
76024;BME280;64719;52.124;6.226;2023-04-03T06:27:39;103393.06;;;7.60;61.92
76024;BME280;64719;52.124;6.226;2023-04-03T06:30:07;103388.88;;;8.19;58.41
76024;BME280;64719;52.124;6.226;2023-04-03T06:32:33;103396.00;;;9.24;56.75
76024;BME280;64719;52.124;6.226;2023-04-03T06:35:00;103401.28;;;10.09;54.01
76024;BME280;64719;52.124;6.226;2023-04-03T06:37:27;103406.78;;;10.33;52.32
76024;BME280;64719;52.124;6.226;2023-04-03T06:39:54;103397.72;;;11.37;51.45
76024;BME280;64719;52.124;6.226;2023-04-03T06:42:22;103402.91;;;10.67;50.23
76024;BME280;64719;52.124;6.226;2023-04-03T06:44:49;103404.44;;;10.70;50.25
76024;BME280;64719;52.124;6.226;2023-04-03T06:47:16;103407.22;;;11.87;48.89
76024;BME280;64719;52.124;6.226;2023-04-03T06:49:44;103412.84;;;12.16;46.70
76024;BME280;64719;52.124;6.226;2023-04-03T06:52:11;103412.69;;;11.08;47.64
76024;BME280;64719;52.124;6.226;2023-04-03T06:54:38;103426.78;;;11.83;46.74
76024;BME280;64719;52.124;6.226;2023-04-03T06:57:06;103425.66;;;11.61;46.99
76024;BME280;64719;52.124;6.226;2023-04-03T06:59:34;103430.28;;;11.99;45.20
76024;BME280;64719;52.124;6.226;2023-04-03T07:02:01;103431.16;;;12.53;45.03
76024;BME280;64719;52.124;6.226;2023-04-03T07:04:28;103437.97;;;12.49;44.36
76024;BME280;64719;52.124;6.226;2023-04-03T07:06:55;103426.47;;;10.83;47.98
76024;BME280;64719;52.124;6.226;2023-04-03T07:09:21;103429.69;;;10.78;48.38
76024;BME280;64719;52.124;6.226;2023-04-03T07:11:48;103435.59;;;10.26;49.81
76024;BME280;64719;52.124;6.226;2023-04-03T07:14:14;103437.50;;;11.05;46.61
76024;BME280;64719;52.124;6.226;2023-04-03T07:16:42;103438.34;;;10.98;46.39
76024;BME280;64719;52.124;6.226;2023-04-03T07:19:09;103434.19;;;13.76;40.87
76024;BME280;64719;52.124;6.226;2023-04-03T07:21:35;103432.13;;;13.20;41.86
76024;BME280;64719;52.124;6.226;2023-04-03T07:24:02;103439.00;;;12.70;41.60
76024;BME280;64719;52.124;6.226;2023-04-03T07:26:29;103452.72;;;13.22;40.03
76024;BME280;64719;52.124;6.226;2023-04-03T07:28:55;103438.72;;;13.25;39.82
76024;BME280;64719;52.124;6.226;2023-04-03T07:31:22;103442.78;;;13.44;38.56
76024;BME280;64719;52.124;6.226;2023-04-03T07:33:50;103445.03;;;13.55;38.15
76024;BME280;64719;52.124;6.226;2023-04-03T07:36:19;103447.09;;;13.82;38.33
76024;BME280;64719;52.124;6.226;2023-04-03T07:38:45;103449.56;;;15.05;36.04
76024;BME280;64719;52.124;6.226;2023-04-03T07:41:13;103447.81;;;15.25;33.94
76024;BME280;64719;52.124;6.226;2023-04-03T07:43:42;103455.88;;;15.33;35.70
76024;BME280;64719;52.124;6.226;2023-04-03T07:46:10;103453.84;;;15.14;33.88
76024;BME280;64719;52.124;6.226;2023-04-03T07:48:37;103459.59;;;14.77;34.35
76024;BME280;64719;52.124;6.226;2023-04-03T07:51:05;103452.72;;;15.57;32.26
76024;BME280;64719;52.124;6.226;2023-04-03T07:53:32;103450.19;;;15.55;31.96
76024;BME280;64719;52.124;6.226;2023-04-03T07:55:59;103455.72;;;16.56;31.46
76024;BME280;64719;52.124;6.226;2023-04-03T07:58:27;103461.03;;;16.23;32.43
76024;BME280;64719;52.124;6.226;2023-04-03T08:00:54;103453.88;;;16.96;30.14
76024;BME280;64719;52.124;6.226;2023-04-03T08:03:21;103466.28;;;17.37;29.59
76024;BME280;64719;52.124;6.226;2023-04-03T08:05:48;103467.13;;;16.19;29.69
76024;BME280;64719;52.124;6.226;2023-04-03T08:08:18;103458.94;;;16.99;28.12
76024;BME280;64719;52.124;6.226;2023-04-03T08:10:48;103472.53;;;15.93;30.97
76024;BME280;64719;52.124;6.226;2023-04-03T08:13:15;103465.69;;;16.90;29.76
76024;BME280;64719;52.124;6.226;2023-04-03T08:15:42;103470.31;;;17.35;27.08
76024;BME280;64719;52.124;6.226;2023-04-03T08:18:08;103464.22;;;17.20;27.90
76024;BME280;64719;52.124;6.226;2023-04-03T08:20:35;103469.00;;;15.71;28.37
76024;BME280;64719;52.124;6.226;2023-04-03T08:23:03;103464.75;;;16.57;28.00
76024;BME280;64719;52.124;6.226;2023-04-03T08:25:31;103462.31;;;17.14;27.01
76024;BME280;64719;52.124;6.226;2023-04-03T08:27:58;103470.41;;;15.95;28.49
76024;BME280;64719;52.124;6.226;2023-04-03T08:30:24;103463.94;;;18.31;25.42
76024;BME280;64719;52.124;6.226;2023-04-03T08:32:51;103467.13;;;16.73;25.80
76024;BME280;64719;52.124;6.226;2023-04-03T08:35:18;103470.72;;;17.71;24.08
76024;BME280;64719;52.124;6.226;2023-04-03T08:37:45;103470.53;;;16.94;25.84
76024;BME280;64719;52.124;6.226;2023-04-03T08:40:14;103465.00;;;16.68;24.00
76024;BME280;64719;52.124;6.226;2023-04-03T08:42:50;103475.81;;;17.22;24.64
76024;BME280;64719;52.124;6.226;2023-04-03T08:45:26;103469.06;;;17.44;23.84
76024;BME280;64719;52.124;6.226;2023-04-03T08:47:58;103468.16;;;16.11;25.18
76024;BME280;64719;52.124;6.226;2023-04-03T08:50:30;103460.97;;;16.51;23.36
76024;BME280;64719;52.124;6.226;2023-04-03T08:53:01;103479.28;;;17.94;23.03
76024;BME280;64719;52.124;6.226;2023-04-03T08:55:33;103470.06;;;17.69;22.26
76024;BME280;64719;52.124;6.226;2023-04-03T08:58:03;103475.50;;;16.45;21.63
76024;BME280;64719;52.124;6.226;2023-04-03T09:00:37;103468.50;;;15.95;22.69
76024;BME280;64719;52.124;6.226;2023-04-03T09:03:12;103465.69;;;17.29;21.27
76024;BME280;64719;52.124;6.226;2023-04-03T09:05:42;103461.19;;;17.67;21.13
76024;BME280;64719;52.124;6.226;2023-04-03T09:08:18;103462.72;;;18.64;21.68
76024;BME280;64719;52.124;6.226;2023-04-03T09:10:48;103468.78;;;17.78;20.84
76024;BME280;64719;52.124;6.226;2023-04-03T09:13:24;103464.19;;;17.59;20.83
76024;BME280;64719;52.124;6.226;2023-04-03T09:15:53;103461.88;;;18.64;20.16
76024;BME280;64719;52.124;6.226;2023-04-03T09:18:23;103457.59;;;18.99;21.37
76024;BME280;64719;52.124;6.226;2023-04-03T09:20:56;103464.25;;;18.60;20.56
76024;BME280;64719;52.124;6.226;2023-04-03T09:23:30;103463.88;;;17.86;19.96
76024;BME280;64719;52.124;6.226;2023-04-03T09:26:03;103471.03;;;18.00;21.36
76024;BME280;64719;52.124;6.226;2023-04-03T09:28:34;103473.06;;;17.28;21.11
76024;BME280;64719;52.124;6.226;2023-04-03T09:31:16;103472.84;;;17.23;21.37
76024;BME280;64719;52.124;6.226;2023-04-03T09:33:45;103470.31;;;18.24;19.92
76024;BME280;64719;52.124;6.226;2023-04-03T09:36:12;103461.06;;;18.57;19.34
76024;BME280;64719;52.124;6.226;2023-04-03T09:38:39;103456.94;;;17.84;20.34
76024;BME280;64719;52.124;6.226;2023-04-03T09:41:07;103458.25;;;16.71;20.92
76024;BME280;64719;52.124;6.226;2023-04-03T09:43:52;103454.16;;;17.97;21.41
76024;BME280;64719;52.124;6.226;2023-04-03T09:46:33;103459.53;;;16.88;20.91
76024;BME280;64719;52.124;6.226;2023-04-03T09:49:04;103445.00;;;16.94;21.88
76024;BME280;64719;52.124;6.226;2023-04-03T09:51:32;103456.38;;;17.23;22.22
76024;BME280;64719;52.124;6.226;2023-04-03T09:53:58;103445.19;;;16.79;21.80
76024;BME280;64719;52.124;6.226;2023-04-03T09:56:27;103445.25;;;18.52;20.67
76024;BME280;64719;52.124;6.226;2023-04-03T09:59:12;103445.94;;;19.28;21.66
76024;BME280;64719;52.124;6.226;2023-04-03T10:01:43;103437.84;;;18.02;20.46
76024;BME280;64719;52.124;6.226;2023-04-03T10:04:22;103435.28;;;17.11;20.99
76024;BME280;64719;52.124;6.226;2023-04-03T10:06:51;103432.00;;;17.85;21.01
76024;BME280;64719;52.124;6.226;2023-04-03T10:09:21;103439.38;;;19.47;20.56
76024;BME280;64719;52.124;6.226;2023-04-03T10:12:02;103425.50;;;18.24;20.26
76024;BME280;64719;52.124;6.226;2023-04-03T10:14:33;103435.97;;;17.96;20.94
76024;BME280;64719;52.124;6.226;2023-04-03T10:17:15;103431.53;;;17.95;20.64
76024;BME280;64719;52.124;6.226;2023-04-03T10:19:47;103425.91;;;17.77;20.21
76024;BME280;64719;52.124;6.226;2023-04-03T10:22:19;103425.53;;;17.47;21.27
76024;BME280;64719;52.124;6.226;2023-04-03T10:24:53;103423.31;;;17.95;20.54
76024;BME280;64719;52.124;6.226;2023-04-03T10:27:29;103413.94;;;18.78;21.39
76024;BME280;64719;52.124;6.226;2023-04-03T10:30:06;103419.34;;;19.15;19.16
76024;BME280;64719;52.124;6.226;2023-04-03T10:32:44;103419.59;;;18.58;20.60
76024;BME280;64719;52.124;6.226;2023-04-03T10:35:19;103416.75;;;18.40;19.87
76024;BME280;64719;52.124;6.226;2023-04-03T10:38:00;103411.81;;;18.11;19.95
76024;BME280;64719;52.124;6.226;2023-04-03T10:40:31;103401.53;;;18.69;20.87
76024;BME280;64719;52.124;6.226;2023-04-03T10:43:05;103398.88;;;17.74;20.42
76024;BME280;64719;52.124;6.226;2023-04-03T10:45:51;103393.09;;;18.64;20.53
76024;BME280;64719;52.124;6.226;2023-04-03T10:48:29;103392.81;;;17.33;20.23
76024;BME280;64719;52.124;6.226;2023-04-03T10:51:01;103379.47;;;17.62;22.19
76024;BME280;64719;52.124;6.226;2023-04-03T10:53:38;103391.78;;;17.14;21.69
76024;BME280;64719;52.124;6.226;2023-04-03T10:56:12;103388.75;;;16.31;21.86
76024;BME280;64719;52.124;6.226;2023-04-03T10:58:44;103386.38;;;17.84;21.47
76024;BME280;64719;52.124;6.226;2023-04-03T11:01:18;103377.28;;;18.21;20.80
76024;BME280;64719;52.124;6.226;2023-04-03T11:03:49;103375.47;;;17.58;21.02
76024;BME280;64719;52.124;6.226;2023-04-03T11:06:18;103383.34;;;18.92;21.10
76024;BME280;64719;52.124;6.226;2023-04-03T11:08:49;103374.69;;;18.33;20.03
76024;BME280;64719;52.124;6.226;2023-04-03T11:11:24;103369.97;;;18.09;21.96
76024;BME280;64719;52.124;6.226;2023-04-03T11:13:56;103372.19;;;18.87;20.51
76024;BME280;64719;52.124;6.226;2023-04-03T11:16:27;103376.59;;;17.18;20.84
76024;BME280;64719;52.124;6.226;2023-04-03T11:18:58;103371.75;;;17.07;21.71
76024;BME280;64719;52.124;6.226;2023-04-03T11:21:29;103369.19;;;17.45;22.15
76024;BME280;64719;52.124;6.226;2023-04-03T11:23:59;103373.47;;;18.60;21.50
76024;BME280;64719;52.124;6.226;2023-04-03T11:26:31;103370.25;;;17.94;21.63
76024;BME280;64719;52.124;6.226;2023-04-03T11:29:01;103358.69;;;16.44;23.09
76024;BME280;64719;52.124;6.226;2023-04-03T11:31:39;103360.31;;;17.36;21.90
76024;BME280;64719;52.124;6.226;2023-04-03T11:34:19;103359.28;;;17.24;21.47
76024;BME280;64719;52.124;6.226;2023-04-03T11:36:53;103346.09;;;15.89;22.58
76024;BME280;64719;52.124;6.226;2023-04-03T11:39:23;103353.06;;;17.68;22.67
76024;BME280;64719;52.124;6.226;2023-04-03T11:41:51;103352.59;;;16.68;22.43
76024;BME280;64719;52.124;6.226;2023-04-03T11:44:30;103346.78;;;15.51;23.99
76024;BME280;64719;52.124;6.226;2023-04-03T11:47:00;103352.31;;;18.23;22.75
76024;BME280;64719;52.124;6.226;2023-04-03T11:49:53;103337.81;;;16.95;22.84
76024;BME280;64719;52.124;6.226;2023-04-03T11:55:44;103345.41;;;16.67;21.86
76024;BME280;64719;52.124;6.226;2023-04-03T11:58:15;103325.53;;;16.32;23.14
76024;BME280;64719;52.124;6.226;2023-04-03T12:00:49;103322.75;;;16.13;22.92
76024;BME280;64719;52.124;6.226;2023-04-03T12:12:36;103305.31;;;17.62;22.01
76024;BME280;64719;52.124;6.226;2023-04-03T12:15:25;103327.28;;;16.73;23.11
76024;BME280;64719;52.124;6.226;2023-04-03T12:17:52;103319.22;;;16.84;21.24
76024;BME280;64719;52.124;6.226;2023-04-03T12:20:54;103315.47;;;16.53;22.60
76024;BME280;64719;52.124;6.226;2023-04-03T12:24:01;103308.44;;;18.10;21.77
76024;BME280;64719;52.124;6.226;2023-04-03T12:26:34;103305.00;;;18.95;20.72
76024;BME280;64719;52.124;6.226;2023-04-03T12:29:10;103314.34;;;17.06;22.88
76024;BME280;64719;52.124;6.226;2023-04-03T12:31:47;103302.94;;;18.10;22.52
76024;BME280;64719;52.124;6.226;2023-04-03T12:34:44;103302.31;;;18.88;21.42
76024;BME280;64719;52.124;6.226;2023-04-03T12:37:24;103299.75;;;18.13;21.83
76024;BME280;64719;52.124;6.226;2023-04-03T12:40:09;103297.03;;;17.05;22.34
76024;BME280;64719;52.124;6.226;2023-04-03T12:43:02;103297.13;;;16.79;23.27
76024;BME280;64719;52.124;6.226;2023-04-03T12:45:40;103296.03;;;16.21;23.45
76024;BME280;64719;52.124;6.226;2023-04-03T12:48:14;103290.94;;;17.67;22.89
76024;BME280;64719;52.124;6.226;2023-04-03T12:50:42;103281.94;;;18.22;21.81
76024;BME280;64719;52.124;6.226;2023-04-03T12:53:13;103292.72;;;17.35;22.89
76024;BME280;64719;52.124;6.226;2023-04-03T12:55:42;103282.69;;;17.10;21.86
76024;BME280;64719;52.124;6.226;2023-04-03T12:58:22;103281.41;;;19.23;21.61
76024;BME280;64719;52.124;6.226;2023-04-03T13:01:00;103277.97;;;17.80;21.02
76024;BME280;64719;52.124;6.226;2023-04-03T13:03:27;103281.00;;;18.03;22.68
76024;BME280;64719;52.124;6.226;2023-04-03T13:05:58;103269.63;;;17.62;22.21
76024;BME280;64719;52.124;6.226;2023-04-03T13:08:25;103270.34;;;17.82;22.70
76024;BME280;64719;52.124;6.226;2023-04-03T13:10:55;103254.72;;;17.32;22.70
76024;BME280;64719;52.124;6.226;2023-04-03T13:13:25;103250.94;;;16.50;24.34
76024;BME280;64719;52.124;6.226;2023-04-03T13:15:53;103251.31;;;16.86;24.82
76024;BME280;64719;52.124;6.226;2023-04-03T13:18:29;103245.41;;;16.17;24.96
76024;BME280;64719;52.124;6.226;2023-04-03T13:21:00;103243.75;;;16.29;24.60